Sainte Marys Airport

About
Name: Sainte Marys Airport
Identifier:  STQ/KOYM
Local Time:  25. Aug 10:04
Location
Sainte Marys
  United States

Flights per Day
0 flights
Punctuality
0% (0 flights per day delayed)
Delay Average: 30 minutes
Current Weather
 9 C (Humidity: 100%)
  0kt (0km/h / 0mph) from 0°
  Scattered clouds at 5,000 feet (1,524 meter)
  16km (10 mi.)
 METAR KOYM 250833Z AUTO 00000KT 10SM SCT050 09/09 A3030 RMK AO2

Current Flights

Departures
Number Departure To Airline
Arrivals
Number Arrival From Airline

Current Delays

Departures
N/A
Arrivals
N/A

Destinations

Top Destinations
Airport Flights
per week
Seats
per week
  Lebanon (LEB) 0 - 0 0
  Oakland County (PTK) 0 - 0 0
  Hartford (HFD) 0 - 0 0
  Caldwell (CDW) 0 - 0 0
  Latrobe (LBE) 0 - 0 0

Airlines & Planes

Top Airlines
Airline Flights
per Day
Seats
per Day
  Flybe Nordic 0 -
Jet Charter Inc ( Franklin Lakes Nj ) 0 -
Top Plane Types
Model Flights Seats
Piper PA-31-350 0.1/day - 0
Cirrus SR22 0.1/day - 0